sensor_id;sensor_type;location;lat;lon;timestamp;pressure;altitude;pressure_sealevel;temperature;humidity
80137;BME280;69466;55.948;37.484;2023-05-10T00:00:27;100570.16;;;8.60;40.98
80137;BME280;69466;55.948;37.484;2023-05-10T00:02:53;100576.50;;;8.67;39.53
80137;BME280;69466;55.948;37.484;2023-05-10T00:05:19;100571.00;;;8.60;40.00
80137;BME280;69466;55.948;37.484;2023-05-10T00:07:45;100565.38;;;8.62;40.02
80137;BME280;69466;55.948;37.484;2023-05-10T00:10:11;100569.59;;;8.64;39.25
80137;BME280;69466;55.948;37.484;2023-05-10T00:12:37;100555.94;;;8.58;39.01
80137;BME280;69466;55.948;37.484;2023-05-10T00:15:04;100559.31;;;8.60;39.00
80137;BME280;69466;55.948;37.484;2023-05-10T00:17:31;100565.91;;;8.57;38.90
80137;BME280;69466;55.948;37.484;2023-05-10T00:20:29;100569.47;;;8.58;38.57
80137;BME280;69466;55.948;37.484;2023-05-10T00:22:56;100567.81;;;8.57;38.66
80137;BME280;69466;55.948;37.484;2023-05-10T00:29:00;100566.31;;;8.54;39.38
80137;BME280;69466;55.948;37.484;2023-05-10T00:31:26;100562.97;;;8.52;39.33
80137;BME280;69466;55.948;37.484;2023-05-10T00:33:52;100554.91;;;8.44;38.95
80137;BME280;69466;55.948;37.484;2023-05-10T00:36:21;100565.38;;;8.47;40.06
80137;BME280;69466;55.948;37.484;2023-05-10T00:38:47;100569.56;;;8.50;39.66
80137;BME280;69466;55.948;37.484;2023-05-10T00:41:12;100565.00;;;8.50;39.44
80137;BME280;69466;55.948;37.484;2023-05-10T00:43:39;100570.22;;;8.52;39.85
80137;BME280;69466;55.948;37.484;2023-05-10T00:46:06;100573.28;;;8.49;40.30
80137;BME280;69466;55.948;37.484;2023-05-10T00:48:32;100568.91;;;8.48;40.09
80137;BME280;69466;55.948;37.484;2023-05-10T00:51:15;100562.84;;;8.45;40.34
80137;BME280;69466;55.948;37.484;2023-05-10T00:53:41;100577.28;;;8.53;40.60
80137;BME280;69466;55.948;37.484;2023-05-10T00:56:07;100566.38;;;8.46;41.61
80137;BME280;69466;55.948;37.484;2023-05-10T00:58:33;100576.34;;;8.45;41.20
80137;BME280;69466;55.948;37.484;2023-05-10T01:01:00;100577.03;;;8.48;41.97
80137;BME280;69466;55.948;37.484;2023-05-10T01:03:27;100562.38;;;8.42;40.87
80137;BME280;69466;55.948;37.484;2023-05-10T01:05:53;100575.34;;;8.47;42.25
80137;BME280;69466;55.948;37.484;2023-05-10T01:08:19;100572.34;;;8.41;43.86
80137;BME280;69466;55.948;37.484;2023-05-10T01:10:45;100564.94;;;8.35;46.16
80137;BME280;69466;55.948;37.484;2023-05-10T01:13:20;100575.97;;;8.34;47.64
80137;BME280;69466;55.948;37.484;2023-05-10T01:15:50;100576.66;;;8.28;48.78
80137;BME280;69466;55.948;37.484;2023-05-10T01:18:19;100572.63;;;8.24;51.37
80137;BME280;69466;55.948;37.484;2023-05-10T01:21:03;100572.31;;;8.19;50.62
80137;BME280;69466;55.948;37.484;2023-05-10T01:26:19;100572.72;;;8.08;50.15
80137;BME280;69466;55.948;37.484;2023-05-10T01:29:09;100574.47;;;8.00;49.85
80137;BME280;69466;55.948;37.484;2023-05-10T01:32:08;100567.75;;;7.96;48.34
80137;BME280;69466;55.948;37.484;2023-05-10T01:37:20;100570.47;;;7.96;49.11
80137;BME280;69466;55.948;37.484;2023-05-10T01:39:54;100569.25;;;7.99;47.01
80137;BME280;69466;55.948;37.484;2023-05-10T01:42:25;100570.78;;;7.93;47.53
80137;BME280;69466;55.948;37.484;2023-05-10T01:45:07;100579.03;;;8.00;46.92
80137;BME280;69466;55.948;37.484;2023-05-10T01:47:42;100573.81;;;7.98;46.21
80137;BME280;69466;55.948;37.484;2023-05-10T01:50:14;100566.44;;;7.92;46.54
80137;BME280;69466;55.948;37.484;2023-05-10T01:52:42;100561.50;;;7.96;46.88
80137;BME280;69466;55.948;37.484;2023-05-10T01:55:15;100567.94;;;7.95;47.39
80137;BME280;69466;55.948;37.484;2023-05-10T01:57:44;100554.66;;;7.85;46.55
80137;BME280;69466;55.948;37.484;2023-05-10T02:00:11;100567.38;;;7.99;45.10
80137;BME280;69466;55.948;37.484;2023-05-10T02:02:44;100562.03;;;7.91;45.01
80137;BME280;69466;55.948;37.484;2023-05-10T02:05:13;100570.78;;;7.93;44.53
80137;BME280;69466;55.948;37.484;2023-05-10T02:07:40;100554.28;;;7.88;44.69
80137;BME280;69466;55.948;37.484;2023-05-10T02:10:07;100555.44;;;7.94;44.61
80137;BME280;69466;55.948;37.484;2023-05-10T02:12:42;100547.00;;;7.89;44.72
80137;BME280;69466;55.948;37.484;2023-05-10T02:15:10;100560.50;;;7.97;44.89
80137;BME280;69466;55.948;37.484;2023-05-10T02:17:37;100559.09;;;8.01;43.68
80137;BME280;69466;55.948;37.484;2023-05-10T02:20:05;100550.69;;;7.96;43.54
80137;BME280;69466;55.948;37.484;2023-05-10T02:22:32;100556.75;;;7.98;44.03
80137;BME280;69466;55.948;37.484;2023-05-10T02:25:00;100563.53;;;7.94;44.70
80137;BME280;69466;55.948;37.484;2023-05-10T02:27:30;100559.81;;;7.95;44.51
80137;BME280;69466;55.948;37.484;2023-05-10T02:29:56;100563.84;;;7.99;44.65
80137;BME280;69466;55.948;37.484;2023-05-10T02:32:25;100554.25;;;7.96;44.32
80137;BME280;69466;55.948;37.484;2023-05-10T02:34:52;100555.72;;;7.99;43.70
80137;BME280;69466;55.948;37.484;2023-05-10T02:37:20;100554.72;;;8.00;44.15
80137;BME280;69466;55.948;37.484;2023-05-10T02:39:50;100541.84;;;8.02;44.52
80137;BME280;69466;55.948;37.484;2023-05-10T02:42:20;100540.00;;;8.02;44.74
80137;BME280;69466;55.948;37.484;2023-05-10T02:44:50;100546.72;;;8.07;44.35
80137;BME280;69466;55.948;37.484;2023-05-10T02:47:18;100545.84;;;8.14;43.76
80137;BME280;69466;55.948;37.484;2023-05-10T02:49:44;100530.50;;;8.07;43.95
80137;BME280;69466;55.948;37.484;2023-05-10T02:52:10;100528.28;;;8.10;43.64
80137;BME280;69466;55.948;37.484;2023-05-10T02:54:44;100529.91;;;8.19;43.74
80137;BME280;69466;55.948;37.484;2023-05-10T02:57:15;100516.09;;;8.14;43.49
80137;BME280;69466;55.948;37.484;2023-05-10T02:59:45;100541.03;;;8.24;43.80
80137;BME280;69466;55.948;37.484;2023-05-10T03:02:12;100530.00;;;8.26;43.65
80137;BME280;69466;55.948;37.484;2023-05-10T03:04:41;100542.66;;;8.33;42.76
80137;BME280;69466;55.948;37.484;2023-05-10T03:07:07;100539.22;;;8.39;42.16
80137;BME280;69466;55.948;37.484;2023-05-10T03:09:34;100539.88;;;8.41;41.68
80137;BME280;69466;55.948;37.484;2023-05-10T03:17:47;100534.31;;;8.58;41.16
80137;BME280;69466;55.948;37.484;2023-05-10T03:20:36;100526.47;;;8.63;40.69
80137;BME280;69466;55.948;37.484;2023-05-10T03:25:42;100520.81;;;8.72;40.40
80137;BME280;69466;55.948;37.484;2023-05-10T03:28:11;100512.59;;;8.66;39.98
80137;BME280;69466;55.948;37.484;2023-05-10T03:30:38;100509.69;;;8.67;40.33
80137;BME280;69466;55.948;37.484;2023-05-10T03:33:05;100512.13;;;8.77;39.58
80137;BME280;69466;55.948;37.484;2023-05-10T03:35:33;100521.00;;;8.85;39.89
80137;BME280;69466;55.948;37.484;2023-05-10T03:38:00;100527.53;;;8.91;39.78
80137;BME280;69466;55.948;37.484;2023-05-10T03:40:26;100528.84;;;8.95;39.51
80137;BME280;69466;55.948;37.484;2023-05-10T03:42:55;100521.66;;;9.02;39.44
80137;BME280;69466;55.948;37.484;2023-05-10T03:45:20;100522.59;;;9.09;38.89
80137;BME280;69466;55.948;37.484;2023-05-10T03:47:46;100524.09;;;9.12;38.70
80137;BME280;69466;55.948;37.484;2023-05-10T03:50:12;100518.13;;;9.16;38.66
80137;BME280;69466;55.948;37.484;2023-05-10T03:52:38;100526.97;;;9.25;38.71
80137;BME280;69466;55.948;37.484;2023-05-10T03:55:07;100523.50;;;9.31;38.86
80137;BME280;69466;55.948;37.484;2023-05-10T03:57:33;100520.03;;;9.37;38.53
80137;BME280;69466;55.948;37.484;2023-05-10T03:59:59;100519.66;;;9.40;38.22
80137;BME280;69466;55.948;37.484;2023-05-10T04:02:26;100527.47;;;9.50;37.58
80137;BME280;69466;55.948;37.484;2023-05-10T04:04:52;100526.91;;;9.54;37.61
80137;BME280;69466;55.948;37.484;2023-05-10T04:07:18;100526.81;;;9.62;38.31
80137;BME280;69466;55.948;37.484;2023-05-10T04:09:46;100521.84;;;9.66;38.51
80137;BME280;69466;55.948;37.484;2023-05-10T04:12:12;100519.00;;;9.74;38.23
80137;BME280;69466;55.948;37.484;2023-05-10T04:14:38;100508.81;;;9.76;37.96
80137;BME280;69466;55.948;37.484;2023-05-10T04:17:04;100505.41;;;9.89;37.79
80137;BME280;69466;55.948;37.484;2023-05-10T04:19:31;100522.38;;;9.97;38.04
80137;BME280;69466;55.948;37.484;2023-05-10T04:21:57;100510.38;;;10.06;37.84
80137;BME280;69466;55.948;37.484;2023-05-10T04:24:24;100508.22;;;10.16;37.36
80137;BME280;69466;55.948;37.484;2023-05-10T04:26:50;100483.41;;;10.19;37.43
80137;BME280;69466;55.948;37.484;2023-05-10T04:29:16;100503.00;;;10.43;37.52
80137;BME280;69466;55.948;37.484;2023-05-10T04:31:42;100505.81;;;10.56;36.99
80137;BME280;69466;55.948;37.484;2023-05-10T04:34:07;100497.56;;;10.71;37.37
80137;BME280;69466;55.948;37.484;2023-05-10T04:36:36;100493.25;;;10.83;36.58
80137;BME280;69466;55.948;37.484;2023-05-10T04:39:03;100499.81;;;10.95;36.22
80137;BME280;69466;55.948;37.484;2023-05-10T04:41:29;100489.88;;;11.08;36.03
80137;BME280;69466;55.948;37.484;2023-05-10T04:43:55;100492.03;;;11.33;35.65
80137;BME280;69466;55.948;37.484;2023-05-10T04:46:21;100499.16;;;11.34;35.60
80137;BME280;69466;55.948;37.484;2023-05-10T04:48:47;100491.28;;;11.52;34.86
80137;BME280;69466;55.948;37.484;2023-05-10T04:51:13;100498.03;;;11.69;35.10
80137;BME280;69466;55.948;37.484;2023-05-10T04:53:39;100488.28;;;11.81;34.13
80137;BME280;69466;55.948;37.484;2023-05-10T04:56:05;100487.88;;;11.91;33.75
80137;BME280;69466;55.948;37.484;2023-05-10T04:58:31;100475.34;;;12.16;33.57
80137;BME280;69466;55.948;37.484;2023-05-10T05:00:57;100475.34;;;12.36;33.26
80137;BME280;69466;55.948;37.484;2023-05-10T05:03:22;100482.88;;;12.60;32.55
80137;BME280;69466;55.948;37.484;2023-05-10T05:05:48;100481.78;;;12.61;33.19
80137;BME280;69466;55.948;37.484;2023-05-10T05:08:14;100479.44;;;12.84;32.11
80137;BME280;69466;55.948;37.484;2023-05-10T05:10:40;100479.38;;;13.17;32.28
80137;BME280;69466;55.948;37.484;2023-05-10T05:13:05;100471.75;;;13.39;31.64
80137;BME280;69466;55.948;37.484;2023-05-10T05:15:31;100483.78;;;13.63;31.26
80137;BME280;69466;55.948;37.484;2023-05-10T05:17:57;100476.09;;;13.85;31.15
80137;BME280;69466;55.948;37.484;2023-05-10T05:20:23;100477.44;;;14.07;30.85
80137;BME280;69466;55.948;37.484;2023-05-10T05:22:49;100471.38;;;14.30;30.57
80137;BME280;69466;55.948;37.484;2023-05-10T05:25:15;100470.59;;;14.23;30.95
80137;BME280;69466;55.948;37.484;2023-05-10T05:27:41;100476.00;;;14.29;30.53
80137;BME280;69466;55.948;37.484;2023-05-10T05:30:07;100477.84;;;14.35;29.90
80137;BME280;69466;55.948;37.484;2023-05-10T05:32:33;100463.72;;;14.45;29.73
80137;BME280;69466;55.948;37.484;2023-05-10T05:34:59;100468.63;;;14.61;30.01
80137;BME280;69466;55.948;37.484;2023-05-10T05:37:26;100457.06;;;14.59;30.35
80137;BME280;69466;55.948;37.484;2023-05-10T05:39:52;100459.06;;;14.70;30.02
80137;BME280;69466;55.948;37.484;2023-05-10T05:42:17;100461.44;;;14.85;29.76
80137;BME280;69466;55.948;37.484;2023-05-10T05:44:44;100458.94;;;15.01;29.65
80137;BME280;69466;55.948;37.484;2023-05-10T05:47:11;100459.69;;;15.08;29.30
80137;BME280;69466;55.948;37.484;2023-05-10T05:49:37;100454.69;;;15.05;29.57
80137;BME280;69466;55.948;37.484;2023-05-10T05:52:03;100461.44;;;15.21;29.38
80137;BME280;69466;55.948;37.484;2023-05-10T05:54:30;100455.81;;;15.34;29.30
80137;BME280;69466;55.948;37.484;2023-05-10T05:57:00;100452.38;;;15.39;28.94
80137;BME280;69466;55.948;37.484;2023-05-10T05:59:26;100449.50;;;15.52;29.46
80137;BME280;69466;55.948;37.484;2023-05-10T06:01:52;100450.75;;;15.49;28.92
80137;BME280;69466;55.948;37.484;2023-05-10T06:04:18;100451.41;;;15.51;28.93
80137;BME280;69466;55.948;37.484;2023-05-10T06:06:45;100444.03;;;15.52;27.86
80137;BME280;69466;55.948;37.484;2023-05-10T06:09:12;100451.69;;;15.62;28.43
80137;BME280;69466;55.948;37.484;2023-05-10T06:11:38;100455.63;;;15.66;28.19
80137;BME280;69466;55.948;37.484;2023-05-10T06:14:08;100448.09;;;15.61;27.95
80137;BME280;69466;55.948;37.484;2023-05-10T06:16:42;100451.13;;;15.71;28.20
80137;BME280;69466;55.948;37.484;2023-05-10T06:19:10;100453.88;;;15.83;27.97
80137;BME280;69466;55.948;37.484;2023-05-10T06:21:40;100453.66;;;15.84;28.20
80137;BME280;69466;55.948;37.484;2023-05-10T06:24:06;100448.59;;;15.70;28.24
80137;BME280;69466;55.948;37.484;2023-05-10T06:26:33;100449.03;;;15.85;28.25
80137;BME280;69466;55.948;37.484;2023-05-10T06:28:59;100439.00;;;15.79;28.13
80137;BME280;69466;55.948;37.484;2023-05-10T06:31:25;100433.81;;;15.89;28.24
80137;BME280;69466;55.948;37.484;2023-05-10T06:33:52;100444.88;;;15.94;28.28
80137;BME280;69466;55.948;37.484;2023-05-10T06:36:18;100431.50;;;15.86;28.08
80137;BME280;69466;55.948;37.484;2023-05-10T06:38:45;100442.38;;;16.04;27.99
80137;BME280;69466;55.948;37.484;2023-05-10T06:41:12;100436.47;;;16.07;28.19
80137;BME280;69466;55.948;37.484;2023-05-10T06:43:38;100433.03;;;16.12;28.34
80137;BME280;69466;55.948;37.484;2023-05-10T06:46:07;100440.53;;;16.16;27.86
80137;BME280;69466;55.948;37.484;2023-05-10T06:48:35;100430.75;;;16.20;27.86
80137;BME280;69466;55.948;37.484;2023-05-10T06:51:01;100430.63;;;16.27;28.17
80137;BME280;69466;55.948;37.484;2023-05-10T06:53:27;100422.81;;;16.30;27.76
80137;BME280;69466;55.948;37.484;2023-05-10T06:55:53;100425.28;;;16.32;27.92
80137;BME280;69466;55.948;37.484;2023-05-10T06:58:18;100420.53;;;16.39;28.12
80137;BME280;69466;55.948;37.484;2023-05-10T07:00:44;100416.94;;;16.50;28.16
80137;BME280;69466;55.948;37.484;2023-05-10T07:03:12;100423.66;;;16.66;27.65
80137;BME280;69466;55.948;37.484;2023-05-10T07:05:38;100431.06;;;16.77;27.27
80137;BME280;69466;55.948;37.484;2023-05-10T07:08:03;100423.66;;;16.66;27.10
80137;BME280;69466;55.948;37.484;2023-05-10T07:10:29;100428.88;;;16.79;27.18
80137;BME280;69466;55.948;37.484;2023-05-10T07:12:55;100424.81;;;16.93;26.91
80137;BME280;69466;55.948;37.484;2023-05-10T07:15:21;100430.84;;;17.18;26.47
80137;BME280;69466;55.948;37.484;2023-05-10T07:17:46;100428.72;;;17.49;26.21
80137;BME280;69466;55.948;37.484;2023-05-10T07:20:12;100418.31;;;17.79;25.85
80137;BME280;69466;55.948;37.484;2023-05-10T07:22:38;100416.28;;;18.03;24.67
80137;BME280;69466;55.948;37.484;2023-05-10T07:25:04;100419.53;;;18.33;24.16
80137;BME280;69466;55.948;37.484;2023-05-10T07:27:30;100414.41;;;18.75;23.88
80137;BME280;69466;55.948;37.484;2023-05-10T07:29:56;100411.38;;;18.93;24.03
80137;BME280;69466;55.948;37.484;2023-05-10T07:32:22;100410.16;;;19.28;23.44
80137;BME280;69466;55.948;37.484;2023-05-10T07:34:48;100402.09;;;19.65;23.47
80137;BME280;69466;55.948;37.484;2023-05-10T07:37:14;100410.34;;;19.91;22.96
80137;BME280;69466;55.948;37.484;2023-05-10T07:39:40;100389.06;;;20.19;22.33
80137;BME280;69466;55.948;37.484;2023-05-10T07:42:06;100401.19;;;20.50;21.76
80137;BME280;69466;55.948;37.484;2023-05-10T07:44:31;100393.81;;;20.60;21.86
80137;BME280;69466;55.948;37.484;2023-05-10T07:46:57;100401.34;;;20.75;21.72
80137;BME280;69466;55.948;37.484;2023-05-10T07:49:25;100398.91;;;20.84;21.69
80137;BME280;69466;55.948;37.484;2023-05-10T07:51:51;100395.13;;;21.67;20.64
80137;BME280;69466;55.948;37.484;2023-05-10T07:54:17;100399.31;;;22.05;20.47
80137;BME280;69466;55.948;37.484;2023-05-10T07:56:44;100388.50;;;22.59;19.34
80137;BME280;69466;55.948;37.484;2023-05-10T07:59:17;100390.53;;;23.28;18.06
80137;BME280;69466;55.948;37.484;2023-05-10T08:01:43;100385.13;;;23.52;18.04
80137;BME280;69466;55.948;37.484;2023-05-10T08:04:09;100392.06;;;23.54;17.88
80137;BME280;69466;55.948;37.484;2023-05-10T08:06:35;100385.59;;;23.69;17.77
80137;BME280;69466;55.948;37.484;2023-05-10T08:09:01;100390.09;;;22.95;17.04
80137;BME280;69466;55.948;37.484;2023-05-10T08:11:27;100383.53;;;23.40;17.24
80137;BME280;69466;55.948;37.484;2023-05-10T08:13:53;100380.66;;;23.61;17.01
80137;BME280;69466;55.948;37.484;2023-05-10T08:16:19;100384.34;;;23.90;16.73
80137;BME280;69466;55.948;37.484;2023-05-10T08:18:46;100375.41;;;23.98;16.55
80137;BME280;69466;55.948;37.484;2023-05-10T08:21:14;100372.06;;;24.01;16.68
80137;BME280;69466;55.948;37.484;2023-05-10T08:23:40;100357.28;;;23.28;16.92
80137;BME280;69466;55.948;37.484;2023-05-10T08:26:06;100364.88;;;22.97;17.50
80137;BME280;69466;55.948;37.484;2023-05-10T08:28:32;100360.28;;;22.72;17.36
80137;BME280;69466;55.948;37.484;2023-05-10T08:30:58;100359.44;;;22.77;17.07
80137;BME280;69466;55.948;37.484;2023-05-10T08:33:23;100361.38;;;22.56;17.19
80137;BME280;69466;55.948;37.484;2023-05-10T08:35:49;100363.94;;;22.12;16.60
80137;BME280;69466;55.948;37.484;2023-05-10T08:38:15;100359.53;;;22.11;16.38
80137;BME280;69466;55.948;37.484;2023-05-10T08:40:42;100363.69;;;22.03;16.55
80137;BME280;69466;55.948;37.484;2023-05-10T08:43:11;100358.13;;;22.19;16.62
80137;BME280;69466;55.948;37.484;2023-05-10T08:45:39;100357.59;;;21.96;16.56
80137;BME280;69466;55.948;37.484;2023-05-10T08:48:07;100349.03;;;22.08;16.88
80137;BME280;69466;55.948;37.484;2023-05-10T08:50:43;100358.59;;;21.45;17.86
80137;BME280;69466;55.948;37.484;2023-05-10T08:53:12;100357.47;;;21.31;17.76
80137;BME280;69466;55.948;37.484;2023-05-10T08:55:39;100356.53;;;21.10;18.83
80137;BME280;69466;55.948;37.484;2023-05-10T08:58:08;100354.41;;;21.17;18.46
80137;BME280;69466;55.948;37.484;2023-05-10T09:00:37;100349.78;;;21.48;18.38
80137;BME280;69466;55.948;37.484;2023-05-10T09:03:04;100347.59;;;21.65;17.90
80137;BME280;69466;55.948;37.484;2023-05-10T09:05:31;100348.41;;;21.65;18.00
80137;BME280;69466;55.948;37.484;2023-05-10T09:07:57;100345.63;;;21.50;18.46
80137;BME280;69466;55.948;37.484;2023-05-10T09:10:26;100329.63;;;21.52;18.86
80137;BME280;69466;55.948;37.484;2023-05-10T09:12:56;100325.66;;;21.13;18.94
80137;BME280;69466;55.948;37.484;2023-05-10T09:15:22;100327.41;;;20.77;19.23
80137;BME280;69466;55.948;37.484;2023-05-10T09:17:49;100314.59;;;20.51;19.62
80137;BME280;69466;55.948;37.484;2023-05-10T09:20:15;100320.34;;;20.44;20.11
80137;BME280;69466;55.948;37.484;2023-05-10T09:22:43;100319.09;;;20.20;19.95
80137;BME280;69466;55.948;37.484;2023-05-10T09:25:09;100325.06;;;20.07;20.44
80137;BME280;69466;55.948;37.484;2023-05-10T09:27:38;100316.63;;;20.23;20.37
80137;BME280;69466;55.948;37.484;2023-05-10T09:30:06;100310.38;;;19.96;19.93
80137;BME280;69466;55.948;37.484;2023-05-10T09:32:40;100329.81;;;19.84;20.22
80137;BME280;69466;55.948;37.484;2023-05-10T09:35:10;100314.31;;;19.73;20.46
80137;BME280;69466;55.948;37.484;2023-05-10T09:37:36;100312.78;;;19.56;20.59
80137;BME280;69466;55.948;37.484;2023-05-10T09:40:06;100316.97;;;19.63;20.38
80137;BME280;69466;55.948;37.484;2023-05-10T09:42:34;100314.28;;;19.68;20.29
80137;BME280;69466;55.948;37.484;2023-05-10T09:45:03;100316.44;;;19.66;20.82
80137;BME280;69466;55.948;37.484;2023-05-10T09:47:33;100310.88;;;19.56;20.81
80137;BME280;69466;55.948;37.484;2023-05-10T09:50:00;100309.19;;;19.55;20.88
80137;BME280;69466;55.948;37.484;2023-05-10T09:52:30;100290.41;;;19.47;20.88
80137;BME280;69466;55.948;37.484;2023-05-10T09:54:56;100298.31;;;19.70;21.07
80137;BME280;69466;55.948;37.484;2023-05-10T09:57:23;100303.84;;;19.75;20.72
80137;BME280;69466;55.948;37.484;2023-05-10T09:59:50;100299.19;;;19.76;20.85
80137;BME280;69466;55.948;37.484;2023-05-10T10:02:17;100294.69;;;19.65;20.98
80137;BME280;69466;55.948;37.484;2023-05-10T10:04:43;100289.69;;;19.57;21.08
80137;BME280;69466;55.948;37.484;2023-05-10T10:07:09;100290.19;;;19.54;20.74
80137;BME280;69466;55.948;37.484;2023-05-10T10:09:35;100286.44;;;19.38;21.13
80137;BME280;69466;55.948;37.484;2023-05-10T10:12:02;100274.19;;;19.51;21.12
80137;BME280;69466;55.948;37.484;2023-05-10T10:14:30;100282.69;;;19.49;21.02
80137;BME280;69466;55.948;37.484;2023-05-10T10:16:56;100286.91;;;19.57;21.19
80137;BME280;69466;55.948;37.484;2023-05-10T10:19:22;100285.34;;;19.66;20.77
80137;BME280;69466;55.948;37.484;2023-05-10T10:21:49;100269.88;;;19.60;20.87
80137;BME280;69466;55.948;37.484;2023-05-10T10:24:15;100282.81;;;19.59;20.95
80137;BME280;69466;55.948;37.484;2023-05-10T10:26:42;100266.38;;;19.42;20.80
80137;BME280;69466;55.948;37.484;2023-05-10T10:31:46;100273.97;;;19.30;21.38
80137;BME280;69466;55.948;37.484;2023-05-10T10:34:26;100273.50;;;19.38;21.16
80137;BME280;69466;55.948;37.484;2023-05-10T10:36:56;100272.03;;;19.31;21.44
80137;BME280;69466;55.948;37.484;2023-05-10T10:39:23;100275.47;;;19.43;20.94
80137;BME280;69466;55.948;37.484;2023-05-10T10:41:54;100270.66;;;19.55;20.55
80137;BME280;69466;55.948;37.484;2023-05-10T10:57:51;100238.88;;;19.42;21.38
80137;BME280;69466;55.948;37.484;2023-05-10T11:00:38;100241.38;;;19.44;21.22
80137;BME280;69466;55.948;37.484;2023-05-10T11:03:13;100249.22;;;19.62;20.73
80137;BME280;69466;55.948;37.484;2023-05-10T11:05:47;100240.91;;;19.57;20.78
80137;BME280;69466;55.948;37.484;2023-05-10T11:10:49;100240.41;;;19.60;20.74
80137;BME280;69466;55.948;37.484;2023-05-10T11:13:29;100233.44;;;19.48;20.84
80137;BME280;69466;55.948;37.484;2023-05-10T11:15:56;100240.72;;;19.37;21.05
80137;BME280;69466;55.948;37.484;2023-05-10T11:18:30;100242.66;;;19.36;20.87
80137;BME280;69466;55.948;37.484;2023-05-10T11:20:58;100232.47;;;19.37;20.96
80137;BME280;69466;55.948;37.484;2023-05-10T11:26:12;100228.78;;;19.26;21.46
80137;BME280;69466;55.948;37.484;2023-05-10T11:28:45;100226.34;;;19.30;21.38
80137;BME280;69466;55.948;37.484;2023-05-10T11:31:14;100219.22;;;19.29;21.40
80137;BME280;69466;55.948;37.484;2023-05-10T11:33:45;100225.75;;;19.23;21.76
80137;BME280;69466;55.948;37.484;2023-05-10T11:36:16;100220.59;;;19.31;21.44
80137;BME280;69466;55.948;37.484;2023-05-10T11:38:42;100214.00;;;19.32;21.58
80137;BME280;69466;55.948;37.484;2023-05-10T11:41:09;100217.69;;;19.43;21.16
80137;BME280;69466;55.948;37.484;2023-05-10T11:43:39;100213.50;;;19.40;21.69
80137;BME280;69466;55.948;37.484;2023-05-10T11:46:07;100215.13;;;19.36;21.81
80137;BME280;69466;55.948;37.484;2023-05-10T11:48:33;100215.16;;;19.10;21.80
80137;BME280;69466;55.948;37.484;2023-05-10T11:51:00;100205.81;;;18.84;21.56
80137;BME280;69466;55.948;37.484;2023-05-10T11:53:29;100206.28;;;18.76;21.90
80137;BME280;69466;55.948;37.484;2023-05-10T11:55:55;100214.75;;;18.69;22.30
80137;BME280;69466;55.948;37.484;2023-05-10T11:58:27;100217.38;;;18.59;22.45
80137;BME280;69466;55.948;37.484;2023-05-10T12:00:53;100215.72;;;18.58;22.50
80137;BME280;69466;55.948;37.484;2023-05-10T12:03:19;100200.72;;;18.49;22.35
80137;BME280;69466;55.948;37.484;2023-05-10T12:05:46;100207.75;;;18.40;22.66
80137;BME280;69466;55.948;37.484;2023-05-10T12:08:14;100205.53;;;18.37;22.76
80137;BME280;69466;55.948;37.484;2023-05-10T12:10:40;100196.16;;;18.33;22.91
80137;BME280;69466;55.948;37.484;2023-05-10T12:13:11;100203.88;;;18.36;22.96
80137;BME280;69466;55.948;37.484;2023-05-10T12:15:37;100202.91;;;18.25;23.31
80137;BME280;69466;55.948;37.484;2023-05-10T12:18:03;100191.53;;;17.95;23.39
80137;BME280;69466;55.948;37.484;2023-05-10T12:20:31;100200.97;;;17.82;23.61
80137;BME280;69466;55.948;37.484;2023-05-10T12:22:58;100194.34;;;17.83;23.74
80137;BME280;69466;55.948;37.484;2023-05-10T12:25:29;100184.22;;;17.84;23.80
80137;BME280;69466;55.948;37.484;2023-05-10T12:27:58;100191.22;;;17.91;23.33
80137;BME280;69466;55.948;37.484;2023-05-10T12:30:28;100181.69;;;17.99;23.73
80137;BME280;69466;55.948;37.484;2023-05-10T12:33:00;100182.22;;;18.17;23.63
80137;BME280;69466;55.948;37.484;2023-05-10T12:35:25;100185.66;;;18.30;23.64
80137;BME280;69466;55.948;37.484;2023-05-10T12:37:51;100173.75;;;18.24;24.04
80137;BME280;69466;55.948;37.484;2023-05-10T12:40:17;100182.25;;;18.44;23.46
80137;BME280;69466;55.948;37.484;2023-05-10T12:42:43;100171.41;;;18.33;23.61
80137;BME280;69466;55.948;37.484;2023-05-10T12:45:11;100182.25;;;18.44;22.90
80137;BME280;69466;55.948;37.484;2023-05-10T12:47:38;100174.66;;;18.51;22.54
80137;BME280;69466;55.948;37.484;2023-05-10T12:50:08;100180.41;;;18.50;22.89
80137;BME280;69466;55.948;37.484;2023-05-10T12:52:35;100180.41;;;18.50;22.78
80137;BME280;69466;55.948;37.484;2023-05-10T12:55:01;100147.78;;;18.32;22.78
80137;BME280;69466;55.948;37.484;2023-05-10T12:57:29;100177.41;;;18.51;22.90
80137;BME280;69466;55.948;37.484;2023-05-10T12:59:57;100171.97;;;18.56;23.04
80137;BME280;69466;55.948;37.484;2023-05-10T13:02:22;100175.31;;;18.58;22.96
80137;BME280;69466;55.948;37.484;2023-05-10T13:04:49;100178.22;;;18.52;23.40
80137;BME280;69466;55.948;37.484;2023-05-10T13:07:15;100174.41;;;18.31;23.44
80137;BME280;69466;55.948;37.484;2023-05-10T13:09:40;100165.66;;;18.34;23.13
80137;BME280;69466;55.948;37.484;2023-05-10T13:12:06;100175.63;;;18.40;23.18
80137;BME280;69466;55.948;37.484;2023-05-10T13:14:32;100168.78;;;18.43;23.28
80137;BME280;69466;55.948;37.484;2023-05-10T13:16:58;100158.19;;;18.30;23.33
80137;BME280;69466;55.948;37.484;2023-05-10T13:19:25;100157.75;;;18.16;23.39
80137;BME280;69466;55.948;37.484;2023-05-10T13:21:51;100167.34;;;18.13;23.88
80137;BME280;69466;55.948;37.484;2023-05-10T13:24:18;100165.03;;;18.27;24.17